TimeMDT,TemperatureF,Dew PointF,Humidity,Sea Level PressureIn,VisibilityMPH,Wind Direction,Wind SpeedMPH,Gust SpeedMPH,PrecipitationIn,Events,Conditions,WindDirDegrees,DateUTC
12:53 AM,79.0,19.9,11,29.72,10.0,NW,5.8,-,N/A,,Clear,310,2013-06-18 06:53:00
1:53 AM,75.0,19.0,12,29.73,10.0,SSW,3.5,-,N/A,,Clear,210,2013-06-18 07:53:00
2:53 AM,71.1,25.0,18,29.74,10.0,ESE,5.8,-,N/A,,Clear,120,2013-06-18 08:53:00
3:53 AM,70.0,48.0,46,29.74,10.0,South,3.5,-,N/A,,Clear,170,2013-06-18 09:53:00
4:53 AM,68.0,48.0,49,29.78,10.0,Calm,Calm,-,N/A,,Clear,0,2013-06-18 10:53:00
5:53 AM,63.0,37.0,38,29.82,10.0,Calm,Calm,-,N/A,,Clear,0,2013-06-18 11:53:00
6:53 AM,66.0,44.1,45,29.83,2.0,NNW,4.6,-,N/A,,Haze,340,2013-06-18 12:53:00
7:07 AM,68.0,46.4,46,30.11,10.0,North,3.5,-,N/A,,Clear,10,2013-06-18 13:07:00
7:53 AM,73.0,50.0,44,29.84,10.0,Calm,Calm,-,N/A,,Clear,0,2013-06-18 13:53:00
8:53 AM,75.9,48.9,38,29.85,10.0,Calm,Calm,-,N/A,,Clear,0,2013-06-18 14:53:00
9:53 AM,78.1,50.0,37,29.86,10.0,Variable,3.5,-,N/A,,Clear,0,2013-06-18 15:53:00
10:53 AM,80.1,50.0,35,29.84,10.0,Variable,5.8,-,N/A,,Clear,0,2013-06-18 16:53:00
11:53 AM,86.0,48.9,28,29.82,10.0,East,4.6,-,N/A,,Clear,100,2013-06-18 17:53:00
12:53 PM,89.1,45.0,22,29.78,10.0,SE,6.9,17.3,N/A,,Clear,140,2013-06-18 18:53:00
1:53 PM,91.0,39.9,17,29.75,10.0,SSE,12.7,20.7,N/A,,Clear,160,2013-06-18 19:53:00
2:53 PM,91.9,42.1,18,29.73,10.0,SSE,9.2,21.9,N/A,,Clear,160,2013-06-18 20:53:00
3:53 PM,95.0,37.9,14,29.69,10.0,South,18.4,33.4,N/A,,Clear,170,2013-06-18 21:53:00
4:53 PM,95.0,33.1,11,29.67,10.0,South,19.6,31.1,N/A,,Clear,180,2013-06-18 22:53:00
5:53 PM,95.0,24.1,8,29.66,10.0,South,21.9,32.2,N/A,,Partly Cloudy,190,2013-06-18 23:53:00
6:53 PM,93.9,19.9,7,29.65,10.0,South,20.7,26.5,N/A,,Clear,190,2013-06-19 00:53:00
7:53 PM,91.9,21.9,8,29.64,10.0,South,12.7,-,N/A,,Clear,180,2013-06-19 01:53:00
8:53 PM,88.0,27.0,11,29.64,10.0,South,9.2,-,N/A,,Clear,180,2013-06-19 02:53:00
9:53 PM,86.0,18.0,8,29.65,10.0,SSW,8.1,-,N/A,,Clear,210,2013-06-19 03:53:00
10:53 PM,79.0,17.1,10,29.68,10.0,WSW,4.6,-,N/A,,Mostly Cloudy,240,2013-06-19 04:53:00
11:53 PM,75.9,14.0,10,29.68,10.0,SSW,5.8,-,N/A,,Clear,210,2013-06-19 05:53:00